sensor_id;sensor_type;location;lat;lon;timestamp;temperature;humidity
70839;DHT22;58464;52.298;4.852;2022-12-20T00:01:11;9.62;85.49
70839;DHT22;58464;52.298;4.852;2022-12-20T00:03:37;9.50;85.66
70839;DHT22;58464;52.298;4.852;2022-12-20T00:06:04;9.51;85.70
70839;DHT22;58464;52.298;4.852;2022-12-20T00:08:29;9.58;85.55
70839;DHT22;58464;52.298;4.852;2022-12-20T00:10:55;9.62;85.57
70839;DHT22;58464;52.298;4.852;2022-12-20T00:13:21;9.54;85.44
70839;DHT22;58464;52.298;4.852;2022-12-20T00:15:46;9.64;85.53
70839;DHT22;58464;52.298;4.852;2022-12-20T00:18:11;9.57;85.28
70839;DHT22;58464;52.298;4.852;2022-12-20T00:20:37;9.59;85.24
70839;DHT22;58464;52.298;4.852;2022-12-20T00:23:02;9.57;85.35
70839;DHT22;58464;52.298;4.852;2022-12-20T00:25:28;9.57;85.41
70839;DHT22;58464;52.298;4.852;2022-12-20T00:27:54;9.55;85.22
70839;DHT22;58464;52.298;4.852;2022-12-20T00:30:19;9.58;85.21
70839;DHT22;58464;52.298;4.852;2022-12-20T00:32:45;9.58;84.97
70839;DHT22;58464;52.298;4.852;2022-12-20T00:35:11;9.59;85.27
70839;DHT22;58464;52.298;4.852;2022-12-20T00:37:36;9.62;85.06
70839;DHT22;58464;52.298;4.852;2022-12-20T00:40:04;9.59;84.97
70839;DHT22;58464;52.298;4.852;2022-12-20T00:42:30;9.61;85.03
70839;DHT22;58464;52.298;4.852;2022-12-20T00:44:55;9.65;84.85
70839;DHT22;58464;52.298;4.852;2022-12-20T00:47:21;9.74;84.60
70839;DHT22;58464;52.298;4.852;2022-12-20T00:49:46;9.65;84.83
70839;DHT22;58464;52.298;4.852;2022-12-20T00:52:13;9.65;84.71
70839;DHT22;58464;52.298;4.852;2022-12-20T00:54:38;9.81;84.42
70839;DHT22;58464;52.298;4.852;2022-12-20T00:57:03;9.77;84.33
70839;DHT22;58464;52.298;4.852;2022-12-20T00:59:29;9.77;84.70
70839;DHT22;58464;52.298;4.852;2022-12-20T01:01:54;9.74;84.75
70839;DHT22;58464;52.298;4.852;2022-12-20T01:04:20;9.71;84.96
70839;DHT22;58464;52.298;4.852;2022-12-20T01:06:45;9.74;84.79
70839;DHT22;58464;52.298;4.852;2022-12-20T01:09:11;9.75;85.03
70839;DHT22;58464;52.298;4.852;2022-12-20T01:11:37;9.78;85.20
70839;DHT22;58464;52.298;4.852;2022-12-20T01:14:12;9.84;85.21
70839;DHT22;58464;52.298;4.852;2022-12-20T01:16:43;9.86;85.54
70839;DHT22;58464;52.298;4.852;2022-12-20T01:19:13;9.74;85.60
70839;DHT22;58464;52.298;4.852;2022-12-20T01:21:39;9.84;85.90
70839;DHT22;58464;52.298;4.852;2022-12-20T01:24:10;9.75;86.15
70839;DHT22;58464;52.298;4.852;2022-12-20T01:26:36;9.79;86.19
70839;DHT22;58464;52.298;4.852;2022-12-20T01:29:02;9.85;86.11
70839;DHT22;58464;52.298;4.852;2022-12-20T01:31:28;9.77;86.38
70839;DHT22;58464;52.298;4.852;2022-12-20T01:33:55;9.79;86.91
70839;DHT22;58464;52.298;4.852;2022-12-20T01:36:25;9.77;87.32
70839;DHT22;58464;52.298;4.852;2022-12-20T01:39:15;9.70;87.35
70839;DHT22;58464;52.298;4.852;2022-12-20T01:41:42;9.64;87.69
70839;DHT22;58464;52.298;4.852;2022-12-20T01:46:48;9.70;88.24
70839;DHT22;58464;52.298;4.852;2022-12-20T01:49:31;9.65;88.52
70839;DHT22;58464;52.298;4.852;2022-12-20T01:52:06;9.71;88.56
70839;DHT22;58464;52.298;4.852;2022-12-20T01:54:42;9.75;89.26
70839;DHT22;58464;52.298;4.852;2022-12-20T01:57:17;9.67;89.05
70839;DHT22;58464;52.298;4.852;2022-12-20T01:59:45;9.67;89.36
70839;DHT22;58464;52.298;4.852;2022-12-20T02:02:11;9.72;89.08
70839;DHT22;58464;52.298;4.852;2022-12-20T02:04:38;9.67;89.23
70839;DHT22;58464;52.298;4.852;2022-12-20T02:07:05;9.68;89.46
70839;DHT22;58464;52.298;4.852;2022-12-20T02:09:33;9.61;89.80
70839;DHT22;58464;52.298;4.852;2022-12-20T02:12:22;9.58;89.68
70839;DHT22;58464;52.298;4.852;2022-12-20T02:22:56;9.64;90.16
70839;DHT22;58464;52.298;4.852;2022-12-20T02:31:12;9.70;89.77
70839;DHT22;58464;52.298;4.852;2022-12-20T02:33:42;9.88;89.47
70839;DHT22;58464;52.298;4.852;2022-12-20T02:36:13;9.85;89.12
70839;DHT22;58464;52.298;4.852;2022-12-20T02:38:39;9.81;89.13
70839;DHT22;58464;52.298;4.852;2022-12-20T02:41:16;9.92;88.95
70839;DHT22;58464;52.298;4.852;2022-12-20T02:43:46;9.89;89.38
70839;DHT22;58464;52.298;4.852;2022-12-20T02:46:32;9.89;89.37
70839;DHT22;58464;52.298;4.852;2022-12-20T02:49:02;9.84;89.45
70839;DHT22;58464;52.298;4.852;2022-12-20T02:51:30;9.92;89.36
70839;DHT22;58464;52.298;4.852;2022-12-20T02:53:57;9.91;89.06
70839;DHT22;58464;52.298;4.852;2022-12-20T02:56:33;9.96;89.28
70839;DHT22;58464;52.298;4.852;2022-12-20T02:59:08;10.03;89.20
70839;DHT22;58464;52.298;4.852;2022-12-20T03:01:38;9.93;89.23
70839;DHT22;58464;52.298;4.852;2022-12-20T03:04:05;9.89;89.27
70839;DHT22;58464;52.298;4.852;2022-12-20T03:06:32;9.93;89.31
70839;DHT22;58464;52.298;4.852;2022-12-20T03:08:58;10.02;89.55
70839;DHT22;58464;52.298;4.852;2022-12-20T03:11:23;9.96;89.36
70839;DHT22;58464;52.298;4.852;2022-12-20T03:13:49;9.91;89.28
70839;DHT22;58464;52.298;4.852;2022-12-20T03:16:14;9.99;89.28
70839;DHT22;58464;52.298;4.852;2022-12-20T03:18:40;9.99;89.46
70839;DHT22;58464;52.298;4.852;2022-12-20T03:21:05;10.06;89.19
70839;DHT22;58464;52.298;4.852;2022-12-20T03:23:31;9.99;89.08
70839;DHT22;58464;52.298;4.852;2022-12-20T03:25:58;10.03;89.22
70839;DHT22;58464;52.298;4.852;2022-12-20T03:28:25;10.03;89.06
70839;DHT22;58464;52.298;4.852;2022-12-20T03:30:51;10.13;89.08
70839;DHT22;58464;52.298;4.852;2022-12-20T03:33:16;10.05;88.95
70839;DHT22;58464;52.298;4.852;2022-12-20T03:35:42;10.03;88.97
70839;DHT22;58464;52.298;4.852;2022-12-20T03:38:08;10.01;89.21
70839;DHT22;58464;52.298;4.852;2022-12-20T03:40:33;9.93;89.21
70839;DHT22;58464;52.298;4.852;2022-12-20T03:42:59;9.98;89.31
70839;DHT22;58464;52.298;4.852;2022-12-20T03:45:24;9.93;89.22
70839;DHT22;58464;52.298;4.852;2022-12-20T03:47:49;10.01;89.36
70839;DHT22;58464;52.298;4.852;2022-12-20T03:50:15;9.99;88.94
70839;DHT22;58464;52.298;4.852;2022-12-20T03:52:40;10.08;89.04
70839;DHT22;58464;52.298;4.852;2022-12-20T03:55:06;10.03;88.75
70839;DHT22;58464;52.298;4.852;2022-12-20T03:57:32;10.10;88.78
70839;DHT22;58464;52.298;4.852;2022-12-20T03:59:57;10.13;88.40
70839;DHT22;58464;52.298;4.852;2022-12-20T04:02:23;10.20;88.12
70839;DHT22;58464;52.298;4.852;2022-12-20T04:04:48;10.16;87.93
70839;DHT22;58464;52.298;4.852;2022-12-20T04:07:13;10.17;88.20
70839;DHT22;58464;52.298;4.852;2022-12-20T04:09:39;10.14;88.08
70839;DHT22;58464;52.298;4.852;2022-12-20T04:12:05;10.23;87.80
70839;DHT22;58464;52.298;4.852;2022-12-20T04:14:30;10.13;87.78
70839;DHT22;58464;52.298;4.852;2022-12-20T04:16:56;10.10;88.20
70839;DHT22;58464;52.298;4.852;2022-12-20T04:19:21;10.12;88.26
70839;DHT22;58464;52.298;4.852;2022-12-20T04:21:46;10.12;87.95
70839;DHT22;58464;52.298;4.852;2022-12-20T04:24:12;10.10;87.92
70839;DHT22;58464;52.298;4.852;2022-12-20T04:26:37;10.08;87.93
70839;DHT22;58464;52.298;4.852;2022-12-20T04:29:03;10.09;87.79
70839;DHT22;58464;52.298;4.852;2022-12-20T04:31:28;10.09;87.71
70839;DHT22;58464;52.298;4.852;2022-12-20T04:33:54;10.10;87.84
70839;DHT22;58464;52.298;4.852;2022-12-20T04:36:21;10.10;87.79
70839;DHT22;58464;52.298;4.852;2022-12-20T04:38:46;10.12;87.88
70839;DHT22;58464;52.298;4.852;2022-12-20T04:41:12;10.10;87.81
70839;DHT22;58464;52.298;4.852;2022-12-20T04:43:48;10.16;87.96
70839;DHT22;58464;52.298;4.852;2022-12-20T04:46:13;10.23;87.98
70839;DHT22;58464;52.298;4.852;2022-12-20T04:48:39;10.20;87.99
70839;DHT22;58464;52.298;4.852;2022-12-20T04:51:04;10.17;88.43
70839;DHT22;58464;52.298;4.852;2022-12-20T04:53:30;10.13;89.60
70839;DHT22;58464;52.298;4.852;2022-12-20T04:56:20;10.10;90.15
70839;DHT22;58464;52.298;4.852;2022-12-20T04:58:47;10.10;90.71
70839;DHT22;58464;52.298;4.852;2022-12-20T05:01:13;10.09;91.06
70839;DHT22;58464;52.298;4.852;2022-12-20T05:03:39;9.99;91.15
70839;DHT22;58464;52.298;4.852;2022-12-20T05:06:05;9.96;91.40
70839;DHT22;58464;52.298;4.852;2022-12-20T05:08:31;9.93;91.41
70839;DHT22;58464;52.298;4.852;2022-12-20T05:10:57;9.92;91.71
70839;DHT22;58464;52.298;4.852;2022-12-20T05:13:23;9.89;92.15
70839;DHT22;58464;52.298;4.852;2022-12-20T05:15:53;9.91;92.32
70839;DHT22;58464;52.298;4.852;2022-12-20T05:18:19;9.89;92.16
70839;DHT22;58464;52.298;4.852;2022-12-20T05:20:44;9.91;92.11
70839;DHT22;58464;52.298;4.852;2022-12-20T05:23:10;9.89;92.27
70839;DHT22;58464;52.298;4.852;2022-12-20T05:25:54;10.01;92.05
70839;DHT22;58464;52.298;4.852;2022-12-20T05:28:38;10.05;92.14
70839;DHT22;58464;52.298;4.852;2022-12-20T05:31:04;10.08;91.99
70839;DHT22;58464;52.298;4.852;2022-12-20T05:33:30;10.02;92.11
70839;DHT22;58464;52.298;4.852;2022-12-20T05:35:55;10.08;91.93
70839;DHT22;58464;52.298;4.852;2022-12-20T05:38:22;10.03;92.17
70839;DHT22;58464;52.298;4.852;2022-12-20T05:40:48;10.03;92.26
70839;DHT22;58464;52.298;4.852;2022-12-20T05:43:14;10.05;92.50
70839;DHT22;58464;52.298;4.852;2022-12-20T05:45:43;10.08;92.59
70839;DHT22;58464;52.298;4.852;2022-12-20T05:48:09;10.03;92.57
70839;DHT22;58464;52.298;4.852;2022-12-20T05:50:35;10.08;92.52
70839;DHT22;58464;52.298;4.852;2022-12-20T05:53:00;10.09;92.53
70839;DHT22;58464;52.298;4.852;2022-12-20T05:55:25;10.16;92.55
70839;DHT22;58464;52.298;4.852;2022-12-20T05:57:51;10.16;92.49
70839;DHT22;58464;52.298;4.852;2022-12-20T06:00:17;10.17;92.37
70839;DHT22;58464;52.298;4.852;2022-12-20T06:02:42;10.14;92.41
70839;DHT22;58464;52.298;4.852;2022-12-20T06:05:07;10.19;92.48
70839;DHT22;58464;52.298;4.852;2022-12-20T06:07:33;10.14;92.59
70839;DHT22;58464;52.298;4.852;2022-12-20T06:09:58;10.19;92.56
70839;DHT22;58464;52.298;4.852;2022-12-20T06:12:24;10.19;92.43
70839;DHT22;58464;52.298;4.852;2022-12-20T06:14:49;10.17;92.50
70839;DHT22;58464;52.298;4.852;2022-12-20T06:17:15;10.16;92.56
70839;DHT22;58464;52.298;4.852;2022-12-20T06:19:41;10.24;92.41
70839;DHT22;58464;52.298;4.852;2022-12-20T06:22:07;10.24;92.46
70839;DHT22;58464;52.298;4.852;2022-12-20T06:24:33;10.28;92.29
70839;DHT22;58464;52.298;4.852;2022-12-20T06:26:59;10.33;92.10
70839;DHT22;58464;52.298;4.852;2022-12-20T06:29:24;10.37;91.67
70839;DHT22;58464;52.298;4.852;2022-12-20T06:31:50;10.36;91.84
70839;DHT22;58464;52.298;4.852;2022-12-20T06:34:16;10.42;91.22
70839;DHT22;58464;52.298;4.852;2022-12-20T06:36:41;10.46;91.06
70839;DHT22;58464;52.298;4.852;2022-12-20T06:39:07;10.52;90.69
70839;DHT22;58464;52.298;4.852;2022-12-20T06:41:34;10.50;90.89
70839;DHT22;58464;52.298;4.852;2022-12-20T06:44:00;10.43;90.89
70839;DHT22;58464;52.298;4.852;2022-12-20T06:46:25;10.40;90.69
70839;DHT22;58464;52.298;4.852;2022-12-20T06:48:52;10.34;90.80
70839;DHT22;58464;52.298;4.852;2022-12-20T06:51:17;10.30;90.84
70839;DHT22;58464;52.298;4.852;2022-12-20T06:53:42;10.33;90.86
70839;DHT22;58464;52.298;4.852;2022-12-20T06:56:08;10.30;90.92
70839;DHT22;58464;52.298;4.852;2022-12-20T06:58:33;10.28;90.71
70839;DHT22;58464;52.298;4.852;2022-12-20T07:00:59;10.42;90.50
70839;DHT22;58464;52.298;4.852;2022-12-20T07:03:24;10.43;90.36
70839;DHT22;58464;52.298;4.852;2022-12-20T07:05:52;10.36;90.23
70839;DHT22;58464;52.298;4.852;2022-12-20T07:08:19;10.39;89.85
70839;DHT22;58464;52.298;4.852;2022-12-20T07:10:45;10.34;89.74
70839;DHT22;58464;52.298;4.852;2022-12-20T07:13:10;10.36;89.69
70839;DHT22;58464;52.298;4.852;2022-12-20T07:15:36;10.42;89.63
70839;DHT22;58464;52.298;4.852;2022-12-20T07:18:02;10.42;89.40
70839;DHT22;58464;52.298;4.852;2022-12-20T07:20:28;10.46;89.48
70839;DHT22;58464;52.298;4.852;2022-12-20T07:22:54;10.46;88.77
70839;DHT22;58464;52.298;4.852;2022-12-20T07:25:19;10.54;88.97
70839;DHT22;58464;52.298;4.852;2022-12-20T07:27:46;10.50;88.54
70839;DHT22;58464;52.298;4.852;2022-12-20T07:30:14;10.54;88.39
70839;DHT22;58464;52.298;4.852;2022-12-20T07:32:39;10.60;88.21
70839;DHT22;58464;52.298;4.852;2022-12-20T07:35:05;10.63;87.79
70839;DHT22;58464;52.298;4.852;2022-12-20T07:37:31;10.75;87.95
70839;DHT22;58464;52.298;4.852;2022-12-20T07:39:56;10.74;87.32
70839;DHT22;58464;52.298;4.852;2022-12-20T07:42:22;10.73;87.33
70839;DHT22;58464;52.298;4.852;2022-12-20T07:44:48;10.70;87.46
70839;DHT22;58464;52.298;4.852;2022-12-20T07:47:15;10.71;87.36
70839;DHT22;58464;52.298;4.852;2022-12-20T07:49:40;10.68;87.66
70839;DHT22;58464;52.298;4.852;2022-12-20T07:52:07;10.65;87.65
70839;DHT22;58464;52.298;4.852;2022-12-20T07:54:42;10.71;87.67
70839;DHT22;58464;52.298;4.852;2022-12-20T07:57:21;10.68;87.55
70839;DHT22;58464;52.298;4.852;2022-12-20T07:59:50;10.70;87.40
70839;DHT22;58464;52.298;4.852;2022-12-20T08:02:22;10.78;87.37
70839;DHT22;58464;52.298;4.852;2022-12-20T08:04:49;10.85;87.59
70839;DHT22;58464;52.298;4.852;2022-12-20T08:07:15;10.82;87.25
70839;DHT22;58464;52.298;4.852;2022-12-20T08:09:42;10.81;87.52
70839;DHT22;58464;52.298;4.852;2022-12-20T08:12:10;10.84;87.28
70839;DHT22;58464;52.298;4.852;2022-12-20T08:14:37;10.80;87.46
70839;DHT22;58464;52.298;4.852;2022-12-20T08:17:03;10.68;87.84
70839;DHT22;58464;52.298;4.852;2022-12-20T08:19:28;10.71;88.30
70839;DHT22;58464;52.298;4.852;2022-12-20T08:21:54;10.65;88.32
70839;DHT22;58464;52.298;4.852;2022-12-20T08:24:19;10.63;88.76
70839;DHT22;58464;52.298;4.852;2022-12-20T08:26:45;10.60;88.95
70839;DHT22;58464;52.298;4.852;2022-12-20T08:29:10;10.63;89.46
70839;DHT22;58464;52.298;4.852;2022-12-20T08:31:37;10.56;89.63
70839;DHT22;58464;52.298;4.852;2022-12-20T08:34:05;10.49;90.11
70839;DHT22;58464;52.298;4.852;2022-12-20T08:36:30;10.40;90.54
70839;DHT22;58464;52.298;4.852;2022-12-20T08:38:56;10.39;91.13
70839;DHT22;58464;52.298;4.852;2022-12-20T08:41:21;10.32;91.40
70839;DHT22;58464;52.298;4.852;2022-12-20T08:43:47;10.32;91.64
70839;DHT22;58464;52.298;4.852;2022-12-20T08:46:12;10.32;91.74
70839;DHT22;58464;52.298;4.852;2022-12-20T08:48:38;10.24;91.96
70839;DHT22;58464;52.298;4.852;2022-12-20T08:51:06;10.28;92.06
70839;DHT22;58464;52.298;4.852;2022-12-20T08:53:33;10.28;92.02
70839;DHT22;58464;52.298;4.852;2022-12-20T08:58:33;10.26;91.90
70839;DHT22;58464;52.298;4.852;2022-12-20T09:01:00;10.29;92.15
70839;DHT22;58464;52.298;4.852;2022-12-20T09:03:29;10.29;91.80
70839;DHT22;58464;52.298;4.852;2022-12-20T09:05:55;10.30;91.87
70839;DHT22;58464;52.298;4.852;2022-12-20T09:08:21;10.30;91.76
70839;DHT22;58464;52.298;4.852;2022-12-20T09:10:46;10.32;91.83
70839;DHT22;58464;52.298;4.852;2022-12-20T09:13:12;10.39;91.41
70839;DHT22;58464;52.298;4.852;2022-12-20T09:15:37;10.39;91.54
70839;DHT22;58464;52.298;4.852;2022-12-20T09:18:04;10.34;91.20
70839;DHT22;58464;52.298;4.852;2022-12-20T09:20:30;10.34;91.18
70839;DHT22;58464;52.298;4.852;2022-12-20T09:22:57;10.40;90.85
70839;DHT22;58464;52.298;4.852;2022-12-20T09:25:23;10.36;91.18
70839;DHT22;58464;52.298;4.852;2022-12-20T09:27:49;10.36;91.13
70839;DHT22;58464;52.298;4.852;2022-12-20T09:30:14;10.39;90.96
70839;DHT22;58464;52.298;4.852;2022-12-20T09:32:41;10.42;91.03
70839;DHT22;58464;52.298;4.852;2022-12-20T09:35:07;10.49;90.92
70839;DHT22;58464;52.298;4.852;2022-12-20T09:37:32;10.47;91.17
70839;DHT22;58464;52.298;4.852;2022-12-20T09:39:58;10.52;91.04
70839;DHT22;58464;52.298;4.852;2022-12-20T09:42:26;10.52;91.06
70839;DHT22;58464;52.298;4.852;2022-12-20T09:45:00;10.50;90.82
70839;DHT22;58464;52.298;4.852;2022-12-20T09:47:27;10.52;90.89
70839;DHT22;58464;52.298;4.852;2022-12-20T09:49:56;10.59;91.10
70839;DHT22;58464;52.298;4.852;2022-12-20T10:00:19;10.61;91.31
70839;DHT22;58464;52.298;4.852;2022-12-20T10:02:45;10.60;91.30
70839;DHT22;58464;52.298;4.852;2022-12-20T10:05:44;10.57;91.47
70839;DHT22;58464;52.298;4.852;2022-12-20T10:11:13;10.57;91.77
70839;DHT22;58464;52.298;4.852;2022-12-20T10:13:54;10.54;91.81
70839;DHT22;58464;52.298;4.852;2022-12-20T10:16:43;10.56;91.96
70839;DHT22;58464;52.298;4.852;2022-12-20T10:22:07;10.65;92.18
70839;DHT22;58464;52.298;4.852;2022-12-20T10:24:34;10.65;92.02
70839;DHT22;58464;52.298;4.852;2022-12-20T10:27:16;10.64;92.03
70839;DHT22;58464;52.298;4.852;2022-12-20T10:29:42;10.70;92.10
70839;DHT22;58464;52.298;4.852;2022-12-20T10:32:15;10.61;92.12
70839;DHT22;58464;52.298;4.852;2022-12-20T10:34:56;10.63;92.24
70839;DHT22;58464;52.298;4.852;2022-12-20T10:37:24;10.59;92.37
70839;DHT22;58464;52.298;4.852;2022-12-20T10:39:50;10.64;92.32
70839;DHT22;58464;52.298;4.852;2022-12-20T10:42:39;10.65;92.40
70839;DHT22;58464;52.298;4.852;2022-12-20T10:45:27;10.70;92.23
70839;DHT22;58464;52.298;4.852;2022-12-20T10:47:58;10.65;92.54
70839;DHT22;58464;52.298;4.852;2022-12-20T10:50:24;10.77;92.42
70839;DHT22;58464;52.298;4.852;2022-12-20T11:01:20;10.77;92.21
70839;DHT22;58464;52.298;4.852;2022-12-20T11:06:24;10.80;92.36
70839;DHT22;58464;52.298;4.852;2022-12-20T11:08:50;10.82;92.45
70839;DHT22;58464;52.298;4.852;2022-12-20T11:11:23;10.82;92.40
70839;DHT22;58464;52.298;4.852;2022-12-20T11:13:50;10.81;92.17
70839;DHT22;58464;52.298;4.852;2022-12-20T11:16:25;10.85;92.03
70839;DHT22;58464;52.298;4.852;2022-12-20T11:21:38;10.94;92.01
70839;DHT22;58464;52.298;4.852;2022-12-20T11:38:39;11.02;92.15
70839;DHT22;58464;52.298;4.852;2022-12-20T11:41:31;11.05;92.02
70839;DHT22;58464;52.298;4.852;2022-12-20T11:44:08;11.04;92.05
70839;DHT22;58464;52.298;4.852;2022-12-20T11:55:16;11.05;92.45
70839;DHT22;58464;52.298;4.852;2022-12-20T11:58:03;11.01;92.33
70839;DHT22;58464;52.298;4.852;2022-12-20T12:00:31;11.01;92.30
70839;DHT22;58464;52.298;4.852;2022-12-20T12:03:33;11.04;92.29
70839;DHT22;58464;52.298;4.852;2022-12-20T12:06:16;11.10;92.68
70839;DHT22;58464;52.298;4.852;2022-12-20T12:08:49;11.05;92.27
70839;DHT22;58464;52.298;4.852;2022-12-20T12:11:23;10.98;92.45
70839;DHT22;58464;52.298;4.852;2022-12-20T12:13:49;11.08;92.54
70839;DHT22;58464;52.298;4.852;2022-12-20T12:16:19;11.07;92.44
70839;DHT22;58464;52.298;4.852;2022-12-20T12:18:49;11.10;92.64
70839;DHT22;58464;52.298;4.852;2022-12-20T12:21:23;11.10;92.57
70839;DHT22;58464;52.298;4.852;2022-12-20T12:26:37;11.08;92.83
70839;DHT22;58464;52.298;4.852;2022-12-20T12:34:26;11.15;92.79
70839;DHT22;58464;52.298;4.852;2022-12-20T12:45:16;11.23;92.73
70839;DHT22;58464;52.298;4.852;2022-12-20T12:47:54;11.21;92.36
70839;DHT22;58464;52.298;4.852;2022-12-20T12:50:29;11.31;92.39
70839;DHT22;58464;52.298;4.852;2022-12-20T12:53:06;11.31;92.12
70839;DHT22;58464;52.298;4.852;2022-12-20T12:55:51;11.32;92.27
70839;DHT22;58464;52.298;4.852;2022-12-20T13:00:54;11.32;92.18
70839;DHT22;58464;52.298;4.852;2022-12-20T13:11:40;11.31;92.39
70839;DHT22;58464;52.298;4.852;2022-12-20T13:16:54;11.29;92.01
70839;DHT22;58464;52.298;4.852;2022-12-20T13:19:50;11.32;92.11
70839;DHT22;58464;52.298;4.852;2022-12-20T13:22:24;11.29;92.13
70839;DHT22;58464;52.298;4.852;2022-12-20T13:29:56;11.29;92.43
70839;DHT22;58464;52.298;4.852;2022-12-20T13:33:02;11.23;92.20
70839;DHT22;58464;52.298;4.852;2022-12-20T13:35:55;11.23;92.48
70839;DHT22;58464;52.298;4.852;2022-12-20T13:38:49;11.26;92.32
70839;DHT22;58464;52.298;4.852;2022-12-20T13:41:39;11.31;92.39
70839;DHT22;58464;52.298;4.852;2022-12-20T13:46:41;11.33;92.07
70839;DHT22;58464;52.298;4.852;2022-12-20T13:49:35;11.28;92.24
70839;DHT22;58464;52.298;4.852;2022-12-20T13:54:44;11.28;92.22
70839;DHT22;58464;52.298;4.852;2022-12-20T13:57:20;11.25;92.43
70839;DHT22;58464;52.298;4.852;2022-12-20T13:59:47;11.29;92.28
70839;DHT22;58464;52.298;4.852;2022-12-20T14:02:25;11.31;92.46
70839;DHT22;58464;52.298;4.852;2022-12-20T14:04:58;11.29;92.36
70839;DHT22;58464;52.298;4.852;2022-12-20T14:07:26;11.29;92.29
70839;DHT22;58464;52.298;4.852;2022-12-20T14:10:00;11.28;92.40
70839;DHT22;58464;52.298;4.852;2022-12-20T14:12:28;11.31;92.14
70839;DHT22;58464;52.298;4.852;2022-12-20T14:14:54;11.25;92.25
70839;DHT22;58464;52.298;4.852;2022-12-20T14:17:32;11.26;92.25
70839;DHT22;58464;52.298;4.852;2022-12-20T14:22:31;11.23;92.25
70839;DHT22;58464;52.298;4.852;2022-12-20T14:24:58;11.19;92.41
70839;DHT22;58464;52.298;4.852;2022-12-20T14:27:28;11.22;92.66
70839;DHT22;58464;52.298;4.852;2022-12-20T14:29:57;11.19;92.45
70839;DHT22;58464;52.298;4.852;2022-12-20T14:32:24;11.18;92.53
70839;DHT22;58464;52.298;4.852;2022-12-20T14:34:50;11.18;92.62
70839;DHT22;58464;52.298;4.852;2022-12-20T14:40:14;11.21;92.74
70839;DHT22;58464;52.298;4.852;2022-12-20T14:42:41;11.26;92.78
70839;DHT22;58464;52.298;4.852;2022-12-20T14:48:00;11.16;92.51
70839;DHT22;58464;52.298;4.852;2022-12-20T14:50:34;11.16;92.41
70839;DHT22;58464;52.298;4.852;2022-12-20T14:53:00;11.16;92.77
70839;DHT22;58464;52.298;4.852;2022-12-20T14:55:34;11.14;92.68
70839;DHT22;58464;52.298;4.852;2022-12-20T14:58:01;11.15;92.81
70839;DHT22;58464;52.298;4.852;2022-12-20T15:00:31;11.18;92.85
70839;DHT22;58464;52.298;4.852;2022-12-20T15:05:35;11.10;92.83
70839;DHT22;58464;52.298;4.852;2022-12-20T15:08:29;11.08;93.04
70839;DHT22;58464;52.298;4.852;2022-12-20T15:13:43;11.07;93.19
70839;DHT22;58464;52.298;4.852;2022-12-20T15:16:24;11.02;93.33
70839;DHT22;58464;52.298;4.852;2022-12-20T15:18:53;11.01;93.29
70839;DHT22;58464;52.298;4.852;2022-12-20T15:23:49;11.01;93.40
70839;DHT22;58464;52.298;4.852;2022-12-20T15:26:21;11.00;93.33
70839;DHT22;58464;52.298;4.852;2022-12-20T15:28:47;11.01;93.13
70839;DHT22;58464;52.298;4.852;2022-12-20T15:31:15;11.04;93.20
70839;DHT22;58464;52.298;4.852;2022-12-20T15:33:42;11.07;93.44
70839;DHT22;58464;52.298;4.852;2022-12-20T15:36:21;11.05;93.61
70839;DHT22;58464;52.298;4.852;2022-12-20T15:38:48;11.05;93.40
70839;DHT22;58464;52.298;4.852;2022-12-20T15:41:29;11.04;93.58
70839;DHT22;58464;52.298;4.852;2022-12-20T15:44:06;10.97;93.70
70839;DHT22;58464;52.298;4.852;2022-12-20T15:46:35;10.97;93.67
70839;DHT22;58464;52.298;4.852;2022-12-20T15:49:01;10.95;93.83
70839;DHT22;58464;52.298;4.852;2022-12-20T15:51:35;10.97;93.98
70839;DHT22;58464;52.298;4.852;2022-12-20T15:54:04;10.95;93.89
70839;DHT22;58464;52.298;4.852;2022-12-20T15:56:30;10.92;93.93
70839;DHT22;58464;52.298;4.852;2022-12-20T15:58:56;10.94;94.13
70839;DHT22;58464;52.298;4.852;2022-12-20T16:01:28;10.95;94.21
70839;DHT22;58464;52.298;4.852;2022-12-20T16:03:54;10.91;94.19
70839;DHT22;58464;52.298;4.852;2022-12-20T16:06:19;10.92;94.22
70839;DHT22;58464;52.298;4.852;2022-12-20T16:08:45;10.94;94.13
70839;DHT22;58464;52.298;4.852;2022-12-20T16:11:26;10.88;94.20
70839;DHT22;58464;52.298;4.852;2022-12-20T16:13:53;10.88;94.06
70839;DHT22;58464;52.298;4.852;2022-12-20T16:16:21;10.87;94.22
70839;DHT22;58464;52.298;4.852;2022-12-20T16:18:47;10.85;94.34
70839;DHT22;58464;52.298;4.852;2022-12-20T16:21:21;10.90;94.01
70839;DHT22;58464;52.298;4.852;2022-12-20T16:23:48;10.90;94.22
70839;DHT22;58464;52.298;4.852;2022-12-20T16:26:16;10.87;94.17
70839;DHT22;58464;52.298;4.852;2022-12-20T16:28:43;10.85;94.18
70839;DHT22;58464;52.298;4.852;2022-12-20T16:31:27;10.85;94.33
70839;DHT22;58464;52.298;4.852;2022-12-20T16:33:54;10.90;94.29
70839;DHT22;58464;52.298;4.852;2022-12-20T16:36:20;10.84;94.20
70839;DHT22;58464;52.298;4.852;2022-12-20T16:38:45;10.84;94.22
70839;DHT22;58464;52.298;4.852;2022-12-20T16:41:17;10.78;94.27
70839;DHT22;58464;52.298;4.852;2022-12-20T16:43:43;10.85;94.49
70839;DHT22;58464;52.298;4.852;2022-12-20T16:46:13;10.80;94.21
70839;DHT22;58464;52.298;4.852;2022-12-20T16:48:39;10.82;94.37
70839;DHT22;58464;52.298;4.852;2022-12-20T16:54:00;10.84;94.12
70839;DHT22;58464;52.298;4.852;2022-12-20T16:56:26;10.81;94.24
70839;DHT22;58464;52.298;4.852;2022-12-20T16:58:52;10.81;94.35
70839;DHT22;58464;52.298;4.852;2022-12-20T17:01:27;10.88;94.53
70839;DHT22;58464;52.298;4.852;2022-12-20T17:03:53;10.77;94.30
70839;DHT22;58464;52.298;4.852;2022-12-20T17:06:19;10.80;94.40
70839;DHT22;58464;52.298;4.852;2022-12-20T17:08:46;10.75;94.72
70839;DHT22;58464;52.298;4.852;2022-12-20T17:11:17;10.74;94.71
70839;DHT22;58464;52.298;4.852;2022-12-20T17:13:44;10.68;94.55
70839;DHT22;58464;52.298;4.852;2022-12-20T17:16:11;10.73;94.71
70839;DHT22;58464;52.298;4.852;2022-12-20T17:18:47;10.71;94.63
70839;DHT22;58464;52.298;4.852;2022-12-20T17:21:35;10.74;94.77
70839;DHT22;58464;52.298;4.852;2022-12-20T17:24:03;10.78;94.74
70839;DHT22;58464;52.298;4.852;2022-12-20T17:26:30;10.73;94.67
70839;DHT22;58464;52.298;4.852;2022-12-20T17:28:57;10.73;94.61
70839;DHT22;58464;52.298;4.852;2022-12-20T17:31:36;10.70;94.29
70839;DHT22;58464;52.298;4.852;2022-12-20T17:34:06;10.73;94.34
70839;DHT22;58464;52.298;4.852;2022-12-20T17:36:37;10.73;94.14
70839;DHT22;58464;52.298;4.852;2022-12-20T17:39:03;10.73;94.27
70839;DHT22;58464;52.298;4.852;2022-12-20T17:41:30;10.73;94.14
70839;DHT22;58464;52.298;4.852;2022-12-20T17:43:58;10.68;94.30
70839;DHT22;58464;52.298;4.852;2022-12-20T17:46:24;10.68;94.37
70839;DHT22;58464;52.298;4.852;2022-12-20T17:48:51;10.73;93.96
70839;DHT22;58464;52.298;4.852;2022-12-20T17:51:22;10.67;94.18
70839;DHT22;58464;52.298;4.852;2022-12-20T17:53:55;10.70;94.27
70839;DHT22;58464;52.298;4.852;2022-12-20T17:56:27;10.67;94.27